sensor_id;sensor_type;location;lat;lon;timestamp;pressure;altitude;pressure_sealevel;temperature;humidity
6835;BME280;3455;42.150;24.734;2023-05-19T00:02:28;67437.53;;;18.97;56.20
6835;BME280;3455;42.150;24.734;2023-05-19T00:04:59;67479.72;;;19.48;55.66
6835;BME280;3455;42.150;24.734;2023-05-19T00:07:29;67469.44;;;19.20;56.28
6835;BME280;3455;42.150;24.734;2023-05-19T00:09:57;67468.16;;;18.88;57.38
6835;BME280;3455;42.150;24.734;2023-05-19T00:12:24;67480.72;;;19.28;56.08
6835;BME280;3455;42.150;24.734;2023-05-19T00:14:53;67481.94;;;19.18;56.31
6835;BME280;3455;42.150;24.734;2023-05-19T00:17:20;67465.34;;;19.17;56.22
6835;BME280;3455;42.150;24.734;2023-05-19T00:19:47;67453.47;;;19.09;56.44
6835;BME280;3455;42.150;24.734;2023-05-19T00:22:14;67465.84;;;19.13;56.11
6835;BME280;3455;42.150;24.734;2023-05-19T00:24:41;67469.91;;;19.16;55.94
6835;BME280;3455;42.150;24.734;2023-05-19T00:27:07;67451.41;;;19.04;56.28
6835;BME280;3455;42.150;24.734;2023-05-19T00:29:34;67464.63;;;19.23;55.94
6835;BME280;3455;42.150;24.734;2023-05-19T00:32:02;67469.81;;;19.12;56.01
6835;BME280;3455;42.150;24.734;2023-05-19T00:34:29;67465.38;;;19.05;56.25
6835;BME280;3455;42.150;24.734;2023-05-19T00:36:56;67511.00;;;19.28;55.49
6835;BME280;3455;42.150;24.734;2023-05-19T00:39:22;67420.22;;;18.63;56.70
6835;BME280;3455;42.150;24.734;2023-05-19T00:41:49;67452.34;;;18.96;55.60
6835;BME280;3455;42.150;24.734;2023-05-19T00:44:16;67375.97;;;19.01;55.57
6835;BME280;3455;42.150;24.734;2023-05-19T00:46:43;67459.13;;;18.93;56.25
6835;BME280;3455;42.150;24.734;2023-05-19T00:49:11;67468.56;;;19.33;55.21
6835;BME280;3455;42.150;24.734;2023-05-19T00:51:38;67403.09;;;18.89;55.58
6835;BME280;3455;42.150;24.734;2023-05-19T00:54:05;67501.72;;;19.35;54.94
6835;BME280;3455;42.150;24.734;2023-05-19T00:56:32;67504.34;;;19.51;54.53
6835;BME280;3455;42.150;24.734;2023-05-19T00:58:59;67472.03;;;19.36;54.92
6835;BME280;3455;42.150;24.734;2023-05-19T01:01:26;67425.91;;;19.14;55.26
6835;BME280;3455;42.150;24.734;2023-05-19T01:03:53;67439.47;;;19.08;55.29
6835;BME280;3455;42.150;24.734;2023-05-19T01:06:24;67398.34;;;18.80;56.15
6835;BME280;3455;42.150;24.734;2023-05-19T01:08:53;67426.38;;;19.10;55.18
6835;BME280;3455;42.150;24.734;2023-05-19T01:11:20;67434.81;;;19.03;55.69
6835;BME280;3455;42.150;24.734;2023-05-19T01:13:47;67421.28;;;18.98;55.99
6835;BME280;3455;42.150;24.734;2023-05-19T01:16:20;67488.72;;;19.15;55.40
6835;BME280;3455;42.150;24.734;2023-05-19T01:18:55;67470.19;;;19.03;55.71
6835;BME280;3455;42.150;24.734;2023-05-19T01:24:46;67392.31;;;18.66;56.17
6835;BME280;3455;42.150;24.734;2023-05-19T01:27:32;67386.78;;;18.86;55.90
6835;BME280;3455;42.150;24.734;2023-05-19T01:32:48;67410.75;;;19.00;55.69
6835;BME280;3455;42.150;24.734;2023-05-19T01:35:17;67474.31;;;18.95;55.71
6835;BME280;3455;42.150;24.734;2023-05-19T01:37:45;67422.38;;;18.83;55.94
6835;BME280;3455;42.150;24.734;2023-05-19T01:40:13;67403.41;;;19.03;55.30
6835;BME280;3455;42.150;24.734;2023-05-19T01:42:40;67488.84;;;19.19;54.91
6835;BME280;3455;42.150;24.734;2023-05-19T01:45:08;67451.16;;;19.06;54.93
6835;BME280;3455;42.150;24.734;2023-05-19T01:47:40;67474.19;;;19.29;54.29
6835;BME280;3455;42.150;24.734;2023-05-19T01:50:07;67454.66;;;18.98;55.24
6835;BME280;3455;42.150;24.734;2023-05-19T01:52:35;67413.28;;;18.84;55.70
6835;BME280;3455;42.150;24.734;2023-05-19T01:55:02;67412.03;;;19.06;55.01
6835;BME280;3455;42.150;24.734;2023-05-19T01:57:33;67473.25;;;19.26;54.46
6835;BME280;3455;42.150;24.734;2023-05-19T02:00:09;67444.63;;;18.96;54.96
6835;BME280;3455;42.150;24.734;2023-05-19T02:02:44;67464.00;;;19.06;54.73
6835;BME280;3455;42.150;24.734;2023-05-19T02:05:24;67484.91;;;19.36;53.69
6835;BME280;3455;42.150;24.734;2023-05-19T02:08:00;67514.59;;;19.35;54.08
6835;BME280;3455;42.150;24.734;2023-05-19T02:10:29;67485.13;;;19.34;54.10
6835;BME280;3455;42.150;24.734;2023-05-19T02:13:00;67491.16;;;19.49;53.81
6835;BME280;3455;42.150;24.734;2023-05-19T02:15:34;67525.78;;;19.38;53.75
6835;BME280;3455;42.150;24.734;2023-05-19T02:18:05;67557.31;;;19.43;53.49
6835;BME280;3455;42.150;24.734;2023-05-19T02:20:33;67449.16;;;19.34;53.57
6835;BME280;3455;42.150;24.734;2023-05-19T02:23:00;67473.78;;;19.38;53.30
6835;BME280;3455;42.150;24.734;2023-05-19T02:25:27;67441.59;;;19.00;54.36
6835;BME280;3455;42.150;24.734;2023-05-19T02:27:53;67490.25;;;19.07;54.62
6835;BME280;3455;42.150;24.734;2023-05-19T02:30:20;67472.63;;;19.10;54.46
6835;BME280;3455;42.150;24.734;2023-05-19T02:32:47;67459.84;;;19.25;54.34
6835;BME280;3455;42.150;24.734;2023-05-19T02:35:16;67509.88;;;19.42;53.72
6835;BME280;3455;42.150;24.734;2023-05-19T02:37:42;67468.94;;;19.24;54.06
6835;BME280;3455;42.150;24.734;2023-05-19T02:40:09;67469.13;;;19.06;54.57
6835;BME280;3455;42.150;24.734;2023-05-19T02:42:36;67399.88;;;18.73;55.71
6835;BME280;3455;42.150;24.734;2023-05-19T02:45:04;67359.38;;;18.46;56.62
6835;BME280;3455;42.150;24.734;2023-05-19T02:47:30;67351.88;;;18.17;57.27
6835;BME280;3455;42.150;24.734;2023-05-19T02:49:57;67337.22;;;18.38;57.35
6835;BME280;3455;42.150;24.734;2023-05-19T02:52:25;67398.88;;;18.65;56.48
6835;BME280;3455;42.150;24.734;2023-05-19T02:54:52;67427.00;;;18.60;56.60
6835;BME280;3455;42.150;24.734;2023-05-19T02:57:19;67372.91;;;18.40;56.96
6835;BME280;3455;42.150;24.734;2023-05-19T02:59:46;67352.13;;;18.42;57.07
6835;BME280;3455;42.150;24.734;2023-05-19T03:02:13;67306.75;;;18.13;57.88
6835;BME280;3455;42.150;24.734;2023-05-19T03:04:39;67388.56;;;18.38;57.65
6835;BME280;3455;42.150;24.734;2023-05-19T03:07:07;67330.16;;;17.88;58.75
6835;BME280;3455;42.150;24.734;2023-05-19T03:09:36;67354.63;;;18.37;57.82
6835;BME280;3455;42.150;24.734;2023-05-19T03:12:04;67347.56;;;18.15;58.55
6835;BME280;3455;42.150;24.734;2023-05-19T03:14:32;67335.69;;;18.07;58.50
6835;BME280;3455;42.150;24.734;2023-05-19T03:16:59;67346.16;;;18.16;58.01
6835;BME280;3455;42.150;24.734;2023-05-19T03:19:26;67395.75;;;18.42;57.62
6835;BME280;3455;42.150;24.734;2023-05-19T03:21:52;67380.16;;;18.33;57.96
6835;BME280;3455;42.150;24.734;2023-05-19T03:24:20;67375.94;;;18.47;57.67
6835;BME280;3455;42.150;24.734;2023-05-19T03:26:49;67402.28;;;18.52;57.57
6835;BME280;3455;42.150;24.734;2023-05-19T03:29:16;67424.44;;;18.49;57.82
6835;BME280;3455;42.150;24.734;2023-05-19T03:31:42;67394.72;;;18.45;57.92
6835;BME280;3455;42.150;24.734;2023-05-19T03:34:09;67376.09;;;18.29;58.27
6835;BME280;3455;42.150;24.734;2023-05-19T03:36:36;67392.09;;;18.29;58.48
6835;BME280;3455;42.150;24.734;2023-05-19T03:39:04;67384.56;;;18.50;57.74
6835;BME280;3455;42.150;24.734;2023-05-19T03:41:31;67494.72;;;19.02;56.27
6835;BME280;3455;42.150;24.734;2023-05-19T03:44:00;67474.28;;;19.34;55.45
6835;BME280;3455;42.150;24.734;2023-05-19T03:46:27;67428.59;;;19.07;55.95
6835;BME280;3455;42.150;24.734;2023-05-19T03:48:54;67433.44;;;18.93;56.08
6835;BME280;3455;42.150;24.734;2023-05-19T03:51:20;67442.84;;;19.06;55.94
6835;BME280;3455;42.150;24.734;2023-05-19T03:53:47;67428.44;;;19.25;55.36
6835;BME280;3455;42.150;24.734;2023-05-19T03:56:14;67438.47;;;18.89;56.72
6835;BME280;3455;42.150;24.734;2023-05-19T03:58:42;67457.41;;;19.19;55.84
6835;BME280;3455;42.150;24.734;2023-05-19T04:01:12;67508.91;;;19.51;54.81
6835;BME280;3455;42.150;24.734;2023-05-19T04:03:39;67420.91;;;19.07;55.67
6835;BME280;3455;42.150;24.734;2023-05-19T04:06:06;67526.25;;;19.34;55.30
6835;BME280;3455;42.150;24.734;2023-05-19T04:08:33;67463.44;;;18.95;55.71
6835;BME280;3455;42.150;24.734;2023-05-19T04:10:59;67486.88;;;19.36;54.99
6835;BME280;3455;42.150;24.734;2023-05-19T04:13:26;67485.81;;;19.12;55.56
6835;BME280;3455;42.150;24.734;2023-05-19T04:15:53;67522.00;;;19.49;54.69
6835;BME280;3455;42.150;24.734;2023-05-19T04:18:21;67465.66;;;19.58;54.35
6835;BME280;3455;42.150;24.734;2023-05-19T04:20:48;67536.00;;;19.61;54.68
6835;BME280;3455;42.150;24.734;2023-05-19T04:23:15;67521.47;;;19.75;53.94
6835;BME280;3455;42.150;24.734;2023-05-19T04:25:42;67513.16;;;19.36;54.88
6835;BME280;3455;42.150;24.734;2023-05-19T04:28:09;67538.06;;;19.76;53.99
6835;BME280;3455;42.150;24.734;2023-05-19T04:30:35;67501.53;;;19.26;55.16
6835;BME280;3455;42.150;24.734;2023-05-19T04:33:02;67496.06;;;19.51;54.36
6835;BME280;3455;42.150;24.734;2023-05-19T04:35:31;67563.00;;;19.94;53.55
6835;BME280;3455;42.150;24.734;2023-05-19T04:37:57;67540.47;;;19.83;53.71
6835;BME280;3455;42.150;24.734;2023-05-19T04:40:25;67555.63;;;19.96;53.42
6835;BME280;3455;42.150;24.734;2023-05-19T04:42:55;67543.50;;;19.90;53.65
6835;BME280;3455;42.150;24.734;2023-05-19T04:45:22;67613.88;;;20.20;52.43
6835;BME280;3455;42.150;24.734;2023-05-19T04:47:50;67599.13;;;20.26;52.24
6835;BME280;3455;42.150;24.734;2023-05-19T04:50:16;67600.59;;;20.40;52.12
6835;BME280;3455;42.150;24.734;2023-05-19T04:52:45;67640.13;;;20.71;51.35
6835;BME280;3455;42.150;24.734;2023-05-19T04:55:11;67679.59;;;20.96;51.10
6835;BME280;3455;42.150;24.734;2023-05-19T04:57:38;67737.84;;;21.16;49.77
6835;BME280;3455;42.150;24.734;2023-05-19T05:00:08;67733.78;;;21.71;49.11
6835;BME280;3455;42.150;24.734;2023-05-19T05:02:37;67737.81;;;21.70;48.26
6835;BME280;3455;42.150;24.734;2023-05-19T05:05:05;67722.88;;;21.55;49.28
6835;BME280;3455;42.150;24.734;2023-05-19T05:07:32;67798.69;;;22.06;47.60
6835;BME280;3455;42.150;24.734;2023-05-19T05:10:00;67838.25;;;22.04;47.95
6835;BME280;3455;42.150;24.734;2023-05-19T05:12:28;67737.13;;;21.65;48.97
6835;BME280;3455;42.150;24.734;2023-05-19T05:14:55;67778.41;;;21.65;49.18
6835;BME280;3455;42.150;24.734;2023-05-19T05:17:23;67796.41;;;21.92;48.96
6835;BME280;3455;42.150;24.734;2023-05-19T05:19:52;67781.38;;;22.00;48.06
6835;BME280;3455;42.150;24.734;2023-05-19T05:22:19;67841.31;;;22.43;46.97
6835;BME280;3455;42.150;24.734;2023-05-19T05:24:46;67817.59;;;22.04;47.65
6835;BME280;3455;42.150;24.734;2023-05-19T05:27:14;67807.09;;;21.95;47.78
6835;BME280;3455;42.150;24.734;2023-05-19T05:29:41;67779.59;;;21.98;48.84
6835;BME280;3455;42.150;24.734;2023-05-19T05:32:08;67733.63;;;21.62;48.46
6835;BME280;3455;42.150;24.734;2023-05-19T05:34:35;67700.38;;;21.33;49.79
6835;BME280;3455;42.150;24.734;2023-05-19T05:37:02;67800.31;;;22.30;47.75
6835;BME280;3455;42.150;24.734;2023-05-19T05:39:29;67836.41;;;22.41;47.18
6835;BME280;3455;42.150;24.734;2023-05-19T05:41:56;67836.25;;;22.21;47.76
6835;BME280;3455;42.150;24.734;2023-05-19T05:44:24;67814.16;;;22.33;48.03
6835;BME280;3455;42.150;24.734;2023-05-19T05:46:51;67751.66;;;21.46;49.51
6835;BME280;3455;42.150;24.734;2023-05-19T05:49:18;67812.25;;;21.95;49.27
6835;BME280;3455;42.150;24.734;2023-05-19T05:51:46;67855.97;;;22.29;48.71
6835;BME280;3455;42.150;24.734;2023-05-19T05:54:16;67794.72;;;22.23;48.58
6835;BME280;3455;42.150;24.734;2023-05-19T05:56:44;67892.84;;;22.50;47.89
6835;BME280;3455;42.150;24.734;2023-05-19T05:59:11;67946.25;;;22.94;46.78
6835;BME280;3455;42.150;24.734;2023-05-19T06:01:40;67944.44;;;23.20;46.85
6835;BME280;3455;42.150;24.734;2023-05-19T06:04:08;68010.97;;;23.58;45.89
6835;BME280;3455;42.150;24.734;2023-05-19T06:06:35;67934.28;;;23.29;46.22
6835;BME280;3455;42.150;24.734;2023-05-19T06:09:02;67983.44;;;23.45;46.54
6835;BME280;3455;42.150;24.734;2023-05-19T06:11:30;68045.84;;;23.91;45.23
6835;BME280;3455;42.150;24.734;2023-05-19T06:13:56;68044.59;;;24.17;44.23
6835;BME280;3455;42.150;24.734;2023-05-19T06:16:23;68199.59;;;25.01;43.04
6835;BME280;3455;42.150;24.734;2023-05-19T06:18:51;68294.41;;;25.63;42.27
6835;BME280;3455;42.150;24.734;2023-05-19T06:21:18;68259.91;;;25.70;41.43
6835;BME280;3455;42.150;24.734;2023-05-19T06:23:46;68323.41;;;26.02;40.71
6835;BME280;3455;42.150;24.734;2023-05-19T06:26:12;68166.69;;;25.15;41.53
6835;BME280;3455;42.150;24.734;2023-05-19T06:28:39;68184.38;;;25.03;41.64
6835;BME280;3455;42.150;24.734;2023-05-19T06:31:06;68132.75;;;24.54;42.92
6835;BME280;3455;42.150;24.734;2023-05-19T06:33:33;68122.81;;;24.45;43.32
6835;BME280;3455;42.150;24.734;2023-05-19T06:36:01;68154.91;;;25.00;42.59
6835;BME280;3455;42.150;24.734;2023-05-19T06:38:27;68385.22;;;26.38;40.56
6835;BME280;3455;42.150;24.734;2023-05-19T06:40:54;68402.94;;;26.95;39.36
6835;BME280;3455;42.150;24.734;2023-05-19T06:43:21;68433.63;;;26.99;38.04
6835;BME280;3455;42.150;24.734;2023-05-19T06:45:50;68603.31;;;28.11;38.12
6835;BME280;3455;42.150;24.734;2023-05-19T06:48:16;68906.91;;;30.03;34.03
6835;BME280;3455;42.150;24.734;2023-05-19T06:50:43;68942.28;;;30.34;33.19
6835;BME280;3455;42.150;24.734;2023-05-19T06:53:12;68947.78;;;30.52;33.65
6835;BME280;3455;42.150;24.734;2023-05-19T06:55:39;69140.16;;;31.51;31.59
6835;BME280;3455;42.150;24.734;2023-05-19T06:58:05;69027.16;;;30.71;31.58
6835;BME280;3455;42.150;24.734;2023-05-19T07:00:32;68816.19;;;29.76;33.29
6835;BME280;3455;42.150;24.734;2023-05-19T07:02:59;68859.56;;;29.84;34.18
6835;BME280;3455;42.150;24.734;2023-05-19T07:05:26;68730.81;;;29.18;35.41
6835;BME280;3455;42.150;24.734;2023-05-19T07:07:53;68661.03;;;28.70;35.42
6835;BME280;3455;42.150;24.734;2023-05-19T07:10:21;68704.38;;;28.79;35.36
6835;BME280;3455;42.150;24.734;2023-05-19T07:12:48;68764.91;;;29.47;35.33
6835;BME280;3455;42.150;24.734;2023-05-19T07:15:15;69143.63;;;30.77;34.13
6835;BME280;3455;42.150;24.734;2023-05-19T07:17:42;69238.38;;;32.30;30.99
6835;BME280;3455;42.150;24.734;2023-05-19T07:20:09;69029.84;;;30.76;33.14
6835;BME280;3455;42.150;24.734;2023-05-19T07:22:36;68884.16;;;29.97;33.71
6835;BME280;3455;42.150;24.734;2023-05-19T07:25:04;68813.56;;;29.40;34.96
6835;BME280;3455;42.150;24.734;2023-05-19T07:27:33;68833.94;;;29.80;33.85
6835;BME280;3455;42.150;24.734;2023-05-19T07:30:00;68666.13;;;28.61;35.88
6835;BME280;3455;42.150;24.734;2023-05-19T07:32:26;68786.84;;;29.39;35.21
6835;BME280;3455;42.150;24.734;2023-05-19T07:34:53;68798.88;;;29.68;33.28
6835;BME280;3455;42.150;24.734;2023-05-19T07:37:20;68925.13;;;30.35;32.83
6835;BME280;3455;42.150;24.734;2023-05-19T07:39:46;68959.09;;;30.51;33.37
6835;BME280;3455;42.150;24.734;2023-05-19T07:42:13;69010.09;;;30.77;32.76
6835;BME280;3455;42.150;24.734;2023-05-19T07:44:41;68879.31;;;30.24;33.62
6835;BME280;3455;42.150;24.734;2023-05-19T07:47:08;68807.66;;;29.71;33.22
6835;BME280;3455;42.150;24.734;2023-05-19T07:49:35;69046.97;;;31.11;31.54
6835;BME280;3455;42.150;24.734;2023-05-19T07:52:02;69048.63;;;31.03;31.85
6835;BME280;3455;42.150;24.734;2023-05-19T07:54:28;69088.06;;;31.33;31.67
6835;BME280;3455;42.150;24.734;2023-05-19T07:56:55;69039.78;;;30.96;32.14
6835;BME280;3455;42.150;24.734;2023-05-19T07:59:22;69073.50;;;31.34;31.99
6835;BME280;3455;42.150;24.734;2023-05-19T08:01:50;69153.03;;;31.53;31.68
6835;BME280;3455;42.150;24.734;2023-05-19T08:04:17;69325.72;;;32.76;28.50
6835;BME280;3455;42.150;24.734;2023-05-19T08:06:43;69288.94;;;32.76;28.88
6835;BME280;3455;42.150;24.734;2023-05-19T08:09:10;69255.97;;;32.15;29.75
6835;BME280;3455;42.150;24.734;2023-05-19T08:11:37;69258.09;;;32.40;29.79
6835;BME280;3455;42.150;24.734;2023-05-19T08:14:04;69206.75;;;32.00;29.53
6835;BME280;3455;42.150;24.734;2023-05-19T08:16:31;69384.38;;;33.36;29.38
6835;BME280;3455;42.150;24.734;2023-05-19T08:18:59;69455.69;;;33.39;27.19
6835;BME280;3455;42.150;24.734;2023-05-19T08:21:27;69486.50;;;33.65;28.09
6835;BME280;3455;42.150;24.734;2023-05-19T08:23:53;69122.94;;;31.68;28.78
6835;BME280;3455;42.150;24.734;2023-05-19T08:26:21;69136.44;;;31.75;29.56
6835;BME280;3455;42.150;24.734;2023-05-19T08:28:48;69281.63;;;32.56;28.63
6835;BME280;3455;42.150;24.734;2023-05-19T08:31:14;69325.91;;;32.69;28.52
6835;BME280;3455;42.150;24.734;2023-05-19T08:33:42;69722.78;;;34.79;26.20
6835;BME280;3455;42.150;24.734;2023-05-19T08:36:10;69657.78;;;34.57;26.88
6835;BME280;3455;42.150;24.734;2023-05-19T08:38:37;69510.03;;;33.77;26.52
6835;BME280;3455;42.150;24.734;2023-05-19T08:41:04;69578.88;;;34.04;26.05
6835;BME280;3455;42.150;24.734;2023-05-19T08:43:31;69883.16;;;35.81;24.88
6835;BME280;3455;42.150;24.734;2023-05-19T08:45:58;69896.63;;;35.79;26.23
6835;BME280;3455;42.150;24.734;2023-05-19T08:48:28;69635.44;;;34.71;26.80
6835;BME280;3455;42.150;24.734;2023-05-19T08:51:00;69539.91;;;34.21;26.49
6835;BME280;3455;42.150;24.734;2023-05-19T08:53:36;69746.47;;;34.95;25.67
6835;BME280;3455;42.150;24.734;2023-05-19T08:56:07;69873.94;;;35.71;25.49
6835;BME280;3455;42.150;24.734;2023-05-19T08:58:38;69862.41;;;35.67;25.17
6835;BME280;3455;42.150;24.734;2023-05-19T09:01:06;69975.16;;;36.51;23.28
6835;BME280;3455;42.150;24.734;2023-05-19T09:03:33;70054.63;;;36.44;23.25
6835;BME280;3455;42.150;24.734;2023-05-19T09:06:04;69809.72;;;35.31;24.30
6835;BME280;3455;42.150;24.734;2023-05-19T09:08:32;69954.28;;;36.29;23.16
6835;BME280;3455;42.150;24.734;2023-05-19T09:11:00;69901.00;;;36.17;23.31
6835;BME280;3455;42.150;24.734;2023-05-19T09:13:27;70023.25;;;36.47;23.24
6835;BME280;3455;42.150;24.734;2023-05-19T09:15:55;69963.06;;;36.27;23.36
6835;BME280;3455;42.150;24.734;2023-05-19T09:18:23;70115.22;;;37.08;23.93
6835;BME280;3455;42.150;24.734;2023-05-19T09:20:50;70049.09;;;36.67;22.51
6835;BME280;3455;42.150;24.734;2023-05-19T09:23:18;70142.41;;;37.18;23.44
6835;BME280;3455;42.150;24.734;2023-05-19T09:25:46;70204.38;;;37.51;21.83
6835;BME280;3455;42.150;24.734;2023-05-19T09:28:22;70208.44;;;37.66;22.29
6835;BME280;3455;42.150;24.734;2023-05-19T09:30:48;70116.31;;;37.20;23.00
6835;BME280;3455;42.150;24.734;2023-05-19T09:33:23;70301.09;;;37.86;21.43
6835;BME280;3455;42.150;24.734;2023-05-19T09:35:50;70384.66;;;38.58;20.37
6835;BME280;3455;42.150;24.734;2023-05-19T09:38:17;70512.53;;;39.36;21.87
6835;BME280;3455;42.150;24.734;2023-05-19T09:40:47;70739.31;;;40.01;20.11
6835;BME280;3455;42.150;24.734;2023-05-19T09:43:15;70393.78;;;38.59;20.73
6835;BME280;3455;42.150;24.734;2023-05-19T09:45:42;70299.47;;;37.94;21.35
6835;BME280;3455;42.150;24.734;2023-05-19T09:48:09;70155.47;;;37.25;20.79
6835;BME280;3455;42.150;24.734;2023-05-19T09:50:36;70427.72;;;38.63;20.48
6835;BME280;3455;42.150;24.734;2023-05-19T09:53:02;70435.09;;;38.83;19.97
6835;BME280;3455;42.150;24.734;2023-05-19T09:55:29;70207.59;;;37.51;21.99
6835;BME280;3455;42.150;24.734;2023-05-19T09:57:57;69971.41;;;36.34;22.74
6835;BME280;3455;42.150;24.734;2023-05-19T10:00:26;69537.13;;;34.32;24.52
6835;BME280;3455;42.150;24.734;2023-05-19T10:02:54;69386.41;;;33.15;26.58
6835;BME280;3455;42.150;24.734;2023-05-19T10:05:22;69236.88;;;32.26;27.57
6835;BME280;3455;42.150;24.734;2023-05-19T10:07:51;69124.31;;;31.62;27.61
6835;BME280;3455;42.150;24.734;2023-05-19T10:10:19;69112.97;;;31.64;29.39
6835;BME280;3455;42.150;24.734;2023-05-19T10:12:47;68943.72;;;30.53;31.27
6835;BME280;3455;42.150;24.734;2023-05-19T10:15:16;69098.44;;;31.65;30.03
6835;BME280;3455;42.150;24.734;2023-05-19T10:17:45;69083.34;;;31.29;29.26
6835;BME280;3455;42.150;24.734;2023-05-19T10:20:13;68971.34;;;30.73;29.15
6835;BME280;3455;42.150;24.734;2023-05-19T10:22:42;68914.91;;;30.53;29.79
6835;BME280;3455;42.150;24.734;2023-05-19T10:25:09;69049.16;;;30.99;29.43
6835;BME280;3455;42.150;24.734;2023-05-19T10:27:41;69020.13;;;31.06;28.52
6835;BME280;3455;42.150;24.734;2023-05-19T10:30:13;68955.09;;;30.77;29.53
6835;BME280;3455;42.150;24.734;2023-05-19T10:32:45;69066.56;;;31.37;28.65
6835;BME280;3455;42.150;24.734;2023-05-19T10:38:11;69775.63;;;35.24;23.73
6835;BME280;3455;42.150;24.734;2023-05-19T10:40:52;69930.38;;;35.99;23.73
6835;BME280;3455;42.150;24.734;2023-05-19T10:43:24;69990.06;;;36.28;22.04
6835;BME280;3455;42.150;24.734;2023-05-19T10:45:56;69978.94;;;36.48;21.75
6835;BME280;3455;42.150;24.734;2023-05-19T10:48:24;70119.38;;;37.12;20.93
6835;BME280;3455;42.150;24.734;2023-05-19T10:50:52;69995.56;;;36.41;21.47
6835;BME280;3455;42.150;24.734;2023-05-19T10:53:20;69142.88;;;31.76;27.23
6835;BME280;3455;42.150;24.734;2023-05-19T10:55:51;69165.72;;;32.03;29.80
6835;BME280;3455;42.150;24.734;2023-05-19T10:58:36;69127.28;;;31.86;27.71
6835;BME280;3455;42.150;24.734;2023-05-19T11:01:06;69245.13;;;31.24;32.16
6835;BME280;3455;42.150;24.734;2023-05-19T11:03:43;69091.25;;;31.50;31.82
6835;BME280;3455;42.150;24.734;2023-05-19T11:06:24;69011.13;;;30.89;31.20
6835;BME280;3455;42.150;24.734;2023-05-19T11:08:52;68995.84;;;30.96;33.06
6835;BME280;3455;42.150;24.734;2023-05-19T11:11:19;69083.03;;;31.47;30.80
6835;BME280;3455;42.150;24.734;2023-05-19T11:13:47;69474.91;;;33.73;29.67
6835;BME280;3455;42.150;24.734;2023-05-19T11:16:17;69770.34;;;35.24;27.24
6835;BME280;3455;42.150;24.734;2023-05-19T11:18:48;70108.09;;;37.02;24.81
6835;BME280;3455;42.150;24.734;2023-05-19T11:21:15;70250.13;;;37.81;20.86
6835;BME280;3455;42.150;24.734;2023-05-19T11:23:42;70166.31;;;37.43;21.29
6835;BME280;3455;42.150;24.734;2023-05-19T11:26:08;69814.41;;;35.51;22.32
6835;BME280;3455;42.150;24.734;2023-05-19T11:28:35;69650.59;;;34.87;23.72
6835;BME280;3455;42.150;24.734;2023-05-19T11:31:03;69692.09;;;35.02;23.61
6835;BME280;3455;42.150;24.734;2023-05-19T11:33:32;69538.06;;;34.14;24.86
6835;BME280;3455;42.150;24.734;2023-05-19T11:36:01;69636.75;;;34.41;23.68
6835;BME280;3455;42.150;24.734;2023-05-19T11:38:28;69122.53;;;31.81;26.84
6835;BME280;3455;42.150;24.734;2023-05-19T11:40:55;68975.47;;;30.76;28.92
6835;BME280;3455;42.150;24.734;2023-05-19T11:43:22;68992.31;;;31.14;27.97
6835;BME280;3455;42.150;24.734;2023-05-19T11:45:49;68976.56;;;30.73;28.96
6835;BME280;3455;42.150;24.734;2023-05-19T11:48:19;68893.84;;;30.64;28.52
6835;BME280;3455;42.150;24.734;2023-05-19T11:50:46;68891.72;;;30.35;28.70
6835;BME280;3455;42.150;24.734;2023-05-19T11:53:14;69055.50;;;31.37;27.75
6835;BME280;3455;42.150;24.734;2023-05-19T11:55:42;69358.69;;;32.95;27.50
6835;BME280;3455;42.150;24.734;2023-05-19T11:58:10;69615.75;;;34.45;23.39
6835;BME280;3455;42.150;24.734;2023-05-19T12:00:38;69943.78;;;36.33;22.06
6835;BME280;3455;42.150;24.734;2023-05-19T12:03:05;70104.25;;;37.21;21.17
6835;BME280;3455;42.150;24.734;2023-05-19T12:05:35;70250.91;;;37.75;21.53
6835;BME280;3455;42.150;24.734;2023-05-19T12:08:02;70354.41;;;38.46;20.33
6835;BME280;3455;42.150;24.734;2023-05-19T12:10:31;70395.91;;;38.63;20.49
6835;BME280;3455;42.150;24.734;2023-05-19T12:13:00;70399.28;;;38.73;19.53
6835;BME280;3455;42.150;24.734;2023-05-19T12:15:27;70522.22;;;39.12;19.43
6835;BME280;3455;42.150;24.734;2023-05-19T12:17:56;70252.50;;;38.04;21.11
6835;BME280;3455;42.150;24.734;2023-05-19T12:20:24;70027.94;;;36.88;22.29
6835;BME280;3455;42.150;24.734;2023-05-19T12:22:52;70177.94;;;37.55;21.85
6835;BME280;3455;42.150;24.734;2023-05-19T12:25:19;70177.41;;;37.39;22.26
6835;BME280;3455;42.150;24.734;2023-05-19T12:27:47;70134.28;;;37.25;21.64
6835;BME280;3455;42.150;24.734;2023-05-19T12:30:15;70171.22;;;37.56;22.47
6835;BME280;3455;42.150;24.734;2023-05-19T12:32:42;70288.00;;;37.95;21.61
6835;BME280;3455;42.150;24.734;2023-05-19T12:35:09;69882.38;;;36.08;22.38
6835;BME280;3455;42.150;24.734;2023-05-19T12:37:40;69683.72;;;35.11;23.38
6835;BME280;3455;42.150;24.734;2023-05-19T12:40:08;69879.59;;;35.78;24.49
6835;BME280;3455;42.150;24.734;2023-05-19T12:42:35;69901.19;;;36.10;23.72
6835;BME280;3455;42.150;24.734;2023-05-19T12:45:04;69678.16;;;35.13;23.31
6835;BME280;3455;42.150;24.734;2023-05-19T12:47:32;69802.66;;;35.71;22.94
6835;BME280;3455;42.150;24.734;2023-05-19T12:50:02;69507.28;;;34.29;24.66
6835;BME280;3455;42.150;24.734;2023-05-19T12:52:32;69641.38;;;34.77;24.38
6835;BME280;3455;42.150;24.734;2023-05-19T12:55:00;69864.53;;;35.92;23.15
6835;BME280;3455;42.150;24.734;2023-05-19T12:57:29;69892.34;;;36.07;23.70
6835;BME280;3455;42.150;24.734;2023-05-19T12:59:59;69788.28;;;35.49;22.80
6835;BME280;3455;42.150;24.734;2023-05-19T13:02:28;69771.00;;;35.71;23.64
6835;BME280;3455;42.150;24.734;2023-05-19T13:04:54;69717.72;;;35.34;22.76
6835;BME280;3455;42.150;24.734;2023-05-19T13:07:23;69796.44;;;35.47;23.86
6835;BME280;3455;42.150;24.734;2023-05-19T13:09:49;69526.59;;;34.32;23.49
6835;BME280;3455;42.150;24.734;2023-05-19T13:12:16;69724.31;;;35.03;22.89
6835;BME280;3455;42.150;24.734;2023-05-19T13:14:43;69869.09;;;36.03;23.48
6835;BME280;3455;42.150;24.734;2023-05-19T13:17:10;69527.22;;;34.32;25.04
6835;BME280;3455;42.150;24.734;2023-05-19T13:19:38;69613.84;;;34.76;25.04
6835;BME280;3455;42.150;24.734;2023-05-19T13:22:05;69700.81;;;34.96;25.22
6835;BME280;3455;42.150;24.734;2023-05-19T13:24:31;69760.25;;;35.36;24.26